createdAt,value
2023-06-20T00:00:42.655Z,4.42
2023-06-20T00:01:42.664Z,4.37
2023-06-20T00:02:42.789Z,4.45
2023-06-20T00:03:42.796Z,4.27
2023-06-20T00:04:42.766Z,4.14
2023-06-20T00:05:42.751Z,4.15
2023-06-20T00:06:42.769Z,4.05
2023-06-20T00:07:42.790Z,4.14
2023-06-20T00:08:42.826Z,4.03
2023-06-20T00:09:42.837Z,4.03
2023-06-20T00:10:42.860Z,4.04
2023-06-20T00:11:42.893Z,3.96
2023-06-20T00:12:42.900Z,4.00
2023-06-20T00:13:42.926Z,3.89
2023-06-20T00:14:42.968Z,3.83
2023-06-20T00:15:42.955Z,3.86
2023-06-20T00:16:42.976Z,4.02
2023-06-20T00:17:43.047Z,3.92
2023-06-20T00:18:43.010Z,3.95
2023-06-20T00:19:43.032Z,3.84
2023-06-20T00:20:43.065Z,3.82
2023-06-20T00:21:43.072Z,3.76
2023-06-20T00:22:43.102Z,3.79
2023-06-20T00:23:43.086Z,3.79
2023-06-20T00:24:43.116Z,3.79
2023-06-20T00:25:43.044Z,3.79
2023-06-20T00:26:43.049Z,3.81
2023-06-20T00:27:43.028Z,3.80
2023-06-20T00:28:43.037Z,3.75
2023-06-20T00:29:43.016Z,3.77
2023-06-20T00:30:42.996Z,3.80
2023-06-20T00:31:42.965Z,3.84
2023-06-20T00:32:42.993Z,3.83
2023-06-20T00:33:42.966Z,3.87
2023-06-20T00:34:42.930Z,4.02
2023-06-20T00:35:42.902Z,4.64
2023-06-20T00:36:42.889Z,4.84
2023-06-20T00:37:42.871Z,4.87
2023-06-20T00:38:42.863Z,5.22
2023-06-20T00:39:42.840Z,5.39
2023-06-20T00:40:42.851Z,5.76
2023-06-20T00:41:42.868Z,6.23
2023-06-20T00:42:42.883Z,6.60
2023-06-20T00:43:42.887Z,7.27
2023-06-20T00:44:42.912Z,7.64
2023-06-20T00:45:42.945Z,8.02
2023-06-20T00:46:42.916Z,8.55
2023-06-20T00:47:42.991Z,8.84
2023-06-20T00:48:42.912Z,9.31
2023-06-20T00:49:42.930Z,10.16
2023-06-20T00:50:42.930Z,10.56
2023-06-20T00:51:42.951Z,10.98
2023-06-20T00:52:42.958Z,11.34
2023-06-20T00:53:42.951Z,11.94
2023-06-20T00:54:42.959Z,12.51
2023-06-20T00:55:42.967Z,13.10
2023-06-20T00:56:42.957Z,13.95
2023-06-20T00:57:42.959Z,14.24
2023-06-20T00:58:42.968Z,14.75
2023-06-20T00:59:42.974Z,16.25
2023-06-20T01:00:42.989Z,17.00
2023-06-20T01:01:43.056Z,17.05
2023-06-20T01:02:43.066Z,17.82
2023-06-20T01:03:43.071Z,18.63
2023-06-20T01:04:42.998Z,19.00
2023-06-20T01:05:43.001Z,19.01
2023-06-20T01:06:43.019Z,19.52
2023-06-20T01:07:43.026Z,20.84
2023-06-20T01:08:43.016Z,21.21
2023-06-20T01:09:43.016Z,22.20
2023-06-20T01:10:43.020Z,22.78
2023-06-20T01:11:43.009Z,23.77
2023-06-20T01:12:43.012Z,25.17
2023-06-20T01:13:43.008Z,24.71
2023-06-20T01:14:43.024Z,26.38
2023-06-20T01:15:43.044Z,26.07
2023-06-20T01:16:43.018Z,27.85
2023-06-20T01:17:43.093Z,29.47
2023-06-20T01:18:43.020Z,30.44
2023-06-20T01:19:43.038Z,31.97
2023-06-20T01:20:43.038Z,32.26
2023-06-20T01:21:43.037Z,32.17
2023-06-20T01:22:43.045Z,33.80
2023-06-20T01:23:43.068Z,34.36
2023-06-20T01:24:43.128Z,34.15
2023-06-20T01:25:43.076Z,36.21
2023-06-20T01:26:43.069Z,37.22
2023-06-20T01:27:43.067Z,37.93
2023-06-20T01:28:43.082Z,37.38
2023-06-20T01:29:43.083Z,38.89
2023-06-20T01:30:43.095Z,39.59
2023-06-20T01:31:43.088Z,40.98
2023-06-20T01:32:43.136Z,40.59
2023-06-20T01:33:43.103Z,40.64
2023-06-20T01:34:43.128Z,40.76
2023-06-20T01:35:43.118Z,41.83
2023-06-20T01:36:43.126Z,42.96
2023-06-20T01:37:43.122Z,43.10
2023-06-20T01:38:43.136Z,42.53
2023-06-20T01:39:43.118Z,42.57
2023-06-20T01:40:43.098Z,42.97
2023-06-20T01:41:43.068Z,43.85
2023-06-20T01:42:43.064Z,43.39
2023-06-20T01:43:43.035Z,44.53
2023-06-20T01:44:43.035Z,45.05
2023-06-20T01:45:42.996Z,46.03
2023-06-20T01:46:43.074Z,45.88
2023-06-20T01:47:43.029Z,46.90
2023-06-20T01:48:42.935Z,43.68
2023-06-20T01:49:42.907Z,45.36
2023-06-20T01:50:42.919Z,46.76
2023-06-20T01:51:42.867Z,47.06
2023-06-20T01:52:42.845Z,47.69
2023-06-20T01:53:42.840Z,46.97
2023-06-20T01:54:42.802Z,48.92
2023-06-20T01:55:42.784Z,47.50
2023-06-20T01:56:42.768Z,49.15
2023-06-20T01:57:42.746Z,47.96
2023-06-20T01:58:42.764Z,50.79
2023-06-20T01:59:42.765Z,50.50
2023-06-20T02:00:42.681Z,49.53
2023-06-20T02:01:42.655Z,51.42
2023-06-20T02:02:42.719Z,52.05
2023-06-20T02:03:42.741Z,52.07
2023-06-20T02:04:42.681Z,51.57
2023-06-20T02:05:42.684Z,52.26
2023-06-20T02:06:42.685Z,51.42
2023-06-20T02:07:42.683Z,53.31
2023-06-20T02:08:42.698Z,54.88
2023-06-20T02:09:42.688Z,54.61
2023-06-20T02:10:42.706Z,54.95
2023-06-20T02:11:42.696Z,53.45
2023-06-20T02:12:42.718Z,53.83
2023-06-20T02:13:42.704Z,55.60
2023-06-20T02:14:42.733Z,54.42
2023-06-20T02:15:42.734Z,52.94
2023-06-20T02:16:42.750Z,54.74
2023-06-20T02:17:42.779Z,55.07
2023-06-20T02:18:42.731Z,54.75
2023-06-20T02:19:42.758Z,56.06
2023-06-20T02:20:42.770Z,56.65
2023-06-20T02:21:42.752Z,57.96
2023-06-20T02:22:42.772Z,57.48
2023-06-20T02:23:42.775Z,55.28
2023-06-20T02:24:42.861Z,54.98
2023-06-20T02:25:42.793Z,56.10
2023-06-20T02:26:42.791Z,56.90
2023-06-20T02:27:42.805Z,57.62
2023-06-20T02:28:42.844Z,57.52
2023-06-20T02:29:42.827Z,56.57
2023-06-20T02:30:42.825Z,59.19
2023-06-20T02:31:42.900Z,57.64
2023-06-20T02:32:42.865Z,57.30
2023-06-20T02:33:42.835Z,58.61
2023-06-20T02:34:42.847Z,57.18
2023-06-20T02:35:42.849Z,57.09
2023-06-20T02:36:42.871Z,57.05
2023-06-20T02:37:42.871Z,55.78
2023-06-20T02:38:42.891Z,57.94
2023-06-20T02:39:42.883Z,56.44
2023-06-20T02:40:42.910Z,57.86
2023-06-20T02:41:42.936Z,56.85
2023-06-20T02:42:45.957Z,57.66
2023-06-20T02:43:42.943Z,56.53
2023-06-20T02:44:42.898Z,55.02
2023-06-20T02:45:42.867Z,55.10
2023-06-20T02:46:42.812Z,54.92
2023-06-20T02:47:42.813Z,54.50
2023-06-20T02:48:42.785Z,57.15
2023-06-20T02:49:42.760Z,56.79
2023-06-20T02:50:42.784Z,56.84
2023-06-20T02:51:42.715Z,57.33
2023-06-20T02:52:42.692Z,56.97
2023-06-20T02:53:42.671Z,55.60
2023-06-20T02:54:42.656Z,55.76
2023-06-20T02:55:42.643Z,55.65
2023-06-20T02:56:42.619Z,55.93
2023-06-20T02:57:42.610Z,56.54
2023-06-20T02:58:42.577Z,57.62
2023-06-20T02:59:42.564Z,55.47
2023-06-20T03:00:42.534Z,55.77
2023-06-20T03:01:42.569Z,54.30
2023-06-20T03:02:42.604Z,54.84
2023-06-20T03:03:42.568Z,55.50
2023-06-20T03:04:42.477Z,55.39
2023-06-20T03:05:42.448Z,54.69
2023-06-20T03:06:42.429Z,56.99
2023-06-20T03:07:42.406Z,54.97
2023-06-20T03:08:42.411Z,57.44
2023-06-20T03:09:42.375Z,56.58
2023-06-20T03:10:42.380Z,56.56
2023-06-20T03:11:42.350Z,56.08
2023-06-20T03:12:42.354Z,56.05
2023-06-20T03:13:42.329Z,54.88
2023-06-20T03:14:42.318Z,54.58
2023-06-20T03:15:42.323Z,54.65
2023-06-20T03:16:42.337Z,54.78
2023-06-20T03:17:42.268Z,54.72
2023-06-20T03:18:42.225Z,54.81
2023-06-20T03:19:42.200Z,53.14
2023-06-20T03:20:42.194Z,55.47
2023-06-20T03:21:42.157Z,53.62
2023-06-20T03:22:42.131Z,56.75
2023-06-20T03:23:42.118Z,56.86
2023-06-20T03:24:42.236Z,53.47
2023-06-20T03:25:42.080Z,55.24
2023-06-20T03:26:42.089Z,53.61
2023-06-20T03:27:42.054Z,54.65
2023-06-20T03:28:42.012Z,54.21
2023-06-20T03:29:41.998Z,53.40
2023-06-20T03:30:41.967Z,54.77
2023-06-20T03:31:41.971Z,53.67
2023-06-20T03:32:41.981Z,52.55
2023-06-20T03:33:41.924Z,52.39
2023-06-20T03:34:41.896Z,52.98
2023-06-20T03:35:41.866Z,52.67
2023-06-20T03:36:41.855Z,52.11
2023-06-20T03:37:41.836Z,52.24
2023-06-20T03:38:41.872Z,52.81
2023-06-20T03:39:41.909Z,52.10
2023-06-20T03:40:41.882Z,52.03
2023-06-20T03:41:41.874Z,50.34
2023-06-20T03:42:41.915Z,51.04
2023-06-20T03:43:41.896Z,50.84
2023-06-20T03:44:41.916Z,49.60
2023-06-20T03:45:41.909Z,49.59
2023-06-20T03:46:41.977Z,51.45
2023-06-20T03:47:41.942Z,50.90
2023-06-20T03:48:41.939Z,51.81
2023-06-20T03:49:44.680Z,52.38
2023-06-20T03:50:41.936Z,51.50
2023-06-20T03:51:41.891Z,51.83
2023-06-20T03:52:41.909Z,48.69
2023-06-20T03:53:41.857Z,50.02
2023-06-20T03:54:41.882Z,51.33
2023-06-20T03:55:41.905Z,50.46
2023-06-20T03:56:41.815Z,50.74
2023-06-20T03:57:41.876Z,51.78
2023-06-20T03:58:41.887Z,51.75
2023-06-20T03:59:41.822Z,53.69
2023-06-20T04:00:41.736Z,54.00
2023-06-20T04:01:41.704Z,53.92
2023-06-20T04:02:41.710Z,53.52
2023-06-20T04:03:41.662Z,52.13
2023-06-20T04:04:41.648Z,52.70
2023-06-20T04:05:41.629Z,52.22
2023-06-20T04:06:41.665Z,52.33
2023-06-20T04:07:41.577Z,52.60
2023-06-20T04:08:41.599Z,53.29
2023-06-20T04:09:41.989Z,54.41
2023-06-20T04:10:41.635Z,58.65
2023-06-20T04:11:41.522Z,57.49
2023-06-20T04:12:41.593Z,58.38
2023-06-20T04:13:41.488Z,56.19
2023-06-20T04:14:41.524Z,57.17
2023-06-20T04:15:41.474Z,58.27
2023-06-20T04:16:41.402Z,56.48
2023-06-20T04:17:41.386Z,57.89
2023-06-20T04:18:41.360Z,59.02
2023-06-20T04:19:41.320Z,60.43
2023-06-20T04:20:41.299Z,61.52
2023-06-20T04:21:41.280Z,61.20
2023-06-20T04:22:41.263Z,61.82
2023-06-20T04:23:41.230Z,60.94
2023-06-20T04:24:41.287Z,59.77
2023-06-20T04:25:41.200Z,57.94
2023-06-20T04:26:41.178Z,58.93
2023-06-20T04:27:41.168Z,60.15
2023-06-20T04:28:41.201Z,59.40
2023-06-20T04:29:41.138Z,58.39
2023-06-20T04:30:41.089Z,58.50
2023-06-20T04:31:41.070Z,58.80
2023-06-20T04:32:41.090Z,59.50
2023-06-20T04:33:41.020Z,59.20
2023-06-20T04:34:40.985Z,59.67
2023-06-20T04:35:40.972Z,58.59
2023-06-20T04:36:40.924Z,59.99
2023-06-20T04:37:40.913Z,58.16
2023-06-20T04:38:40.894Z,58.91
2023-06-20T04:39:40.874Z,56.82
2023-06-20T04:40:40.847Z,55.21
2023-06-20T04:41:40.841Z,54.91
2023-06-20T04:42:40.813Z,54.97
2023-06-20T04:43:40.815Z,54.20
2023-06-20T04:44:40.790Z,55.31
2023-06-20T04:45:40.782Z,53.85
2023-06-20T04:46:40.746Z,53.18
2023-06-20T04:47:40.824Z,53.66
2023-06-20T04:48:40.818Z,54.16
2023-06-20T04:49:40.694Z,53.37
2023-06-20T04:50:40.668Z,53.03
2023-06-20T04:51:40.652Z,51.84
2023-06-20T04:52:40.621Z,52.15
2023-06-20T04:53:40.603Z,52.84
2023-06-20T04:54:40.600Z,52.81
2023-06-20T04:55:40.554Z,53.14
2023-06-20T04:56:40.538Z,50.80
2023-06-20T04:57:40.524Z,50.91
2023-06-20T04:58:40.498Z,51.24
2023-06-20T04:59:40.474Z,51.92
2023-06-20T05:00:40.442Z,51.79
2023-06-20T05:01:40.487Z,53.67
2023-06-20T05:02:40.460Z,52.01
2023-06-20T05:03:40.437Z,51.91
2023-06-20T05:04:40.373Z,49.91
2023-06-20T05:05:40.339Z,50.70
2023-06-20T05:06:40.348Z,51.19
2023-06-20T05:07:40.309Z,49.43
2023-06-20T05:08:40.281Z,50.51
2023-06-20T05:09:40.272Z,50.52
2023-06-20T05:10:40.242Z,50.11
2023-06-20T05:11:40.221Z,49.09
2023-06-20T05:12:40.204Z,48.71
2023-06-20T05:13:40.197Z,49.14
2023-06-20T05:14:40.174Z,49.18
2023-06-20T05:15:40.151Z,47.65
2023-06-20T05:16:40.156Z,47.55
2023-06-20T05:17:40.143Z,47.74
2023-06-20T05:18:40.221Z,48.66
2023-06-20T05:19:40.088Z,46.58
2023-06-20T05:20:40.058Z,46.52
2023-06-20T05:21:40.024Z,47.44
2023-06-20T05:22:40.014Z,46.86
2023-06-20T05:23:40.027Z,46.24
2023-06-20T05:24:40.107Z,45.81
2023-06-20T05:25:39.982Z,44.30
2023-06-20T05:26:39.987Z,44.11
2023-06-20T05:27:39.943Z,42.18
2023-06-20T05:28:39.947Z,43.53
2023-06-20T05:29:39.910Z,42.21
2023-06-20T05:30:39.874Z,42.04
2023-06-20T05:31:39.938Z,43.11
2023-06-20T05:32:39.984Z,44.96
2023-06-20T05:33:39.893Z,47.98
2023-06-20T05:34:39.839Z,52.64
2023-06-20T05:35:39.809Z,56.09
2023-06-20T05:36:39.806Z,58.23
2023-06-20T05:37:39.779Z,59.21
2023-06-20T05:38:39.790Z,57.58
2023-06-20T05:39:39.752Z,57.12
2023-06-20T05:40:39.748Z,58.91
2023-06-20T05:41:39.701Z,58.46
2023-06-20T05:42:39.689Z,58.66
2023-06-20T05:43:39.641Z,60.31
2023-06-20T05:44:39.622Z,62.68
2023-06-20T05:45:40.822Z,68.77
2023-06-20T05:46:39.671Z,82.67
2023-06-20T05:47:39.636Z,86.94
2023-06-20T05:48:39.571Z,93.64
2023-06-20T05:49:39.507Z,92.03
2023-06-20T05:50:39.463Z,88.27
2023-06-20T05:51:39.433Z,82.01
2023-06-20T05:52:39.441Z,74.30
2023-06-20T05:53:39.406Z,67.89
2023-06-20T05:54:40.020Z,66.29
2023-06-20T05:55:39.347Z,61.90
2023-06-20T05:56:39.345Z,57.99
2023-06-20T05:57:39.311Z,56.32
2023-06-20T05:58:39.373Z,53.62
2023-06-20T05:59:39.275Z,51.10
2023-06-20T06:00:39.206Z,50.68
2023-06-20T06:01:39.248Z,50.98
2023-06-20T06:02:39.209Z,51.35
2023-06-20T06:03:39.384Z,51.41
2023-06-20T06:04:39.381Z,49.50
2023-06-20T06:05:39.126Z,46.96
2023-06-20T06:06:39.101Z,45.83
2023-06-20T06:07:39.052Z,45.89
2023-06-20T06:08:39.027Z,46.00
2023-06-20T06:09:38.983Z,46.32
2023-06-20T06:10:38.958Z,47.21
2023-06-20T06:11:38.925Z,46.25
2023-06-20T06:12:38.894Z,45.39
2023-06-20T06:13:38.874Z,43.43
2023-06-20T06:14:38.916Z,42.40
2023-06-20T06:15:40.402Z,40.02
2023-06-20T06:16:39.858Z,39.09
2023-06-20T06:17:38.833Z,36.25
2023-06-20T06:18:38.883Z,36.31
2023-06-20T06:19:38.777Z,36.23
2023-06-20T06:20:38.702Z,35.31
2023-06-20T06:21:38.758Z,35.67
2023-06-20T06:22:38.657Z,35.56
2023-06-20T06:23:38.633Z,35.09
2023-06-20T06:25:57.489Z,0.50
2023-06-20T06:26:57.464Z,0.50
2023-06-20T06:27:57.483Z,0.50
2023-06-20T06:28:57.428Z,0.50
2023-06-20T06:29:57.435Z,0.50
2023-06-20T06:30:57.432Z,0.50
2023-06-20T06:31:57.431Z,0.50
2023-06-20T06:32:57.503Z,0.51
2023-06-20T06:33:57.365Z,0.51
2023-06-20T06:34:57.376Z,0.50
2023-06-20T06:35:57.382Z,0.50
2023-06-20T06:36:57.446Z,0.51
2023-06-20T06:37:57.417Z,0.51
2023-06-20T06:38:57.391Z,0.51
2023-06-20T06:39:57.670Z,0.48
2023-06-20T06:40:57.344Z,0.49
2023-06-20T06:41:57.355Z,0.47
2023-06-20T06:42:57.317Z,0.50
2023-06-20T06:43:57.303Z,0.52
2023-06-20T06:44:57.399Z,0.53
2023-06-20T06:45:57.284Z,0.52
2023-06-20T06:46:57.265Z,0.51
2023-06-20T06:47:57.377Z,0.52
2023-06-20T06:48:57.295Z,0.52
2023-06-20T06:49:57.329Z,0.51
2023-06-20T06:50:57.359Z,0.53
2023-06-20T06:51:57.518Z,0.53
2023-06-20T06:52:57.436Z,0.53
2023-06-20T06:53:57.513Z,0.55
2023-06-20T06:54:57.544Z,0.56
2023-06-20T06:55:57.520Z,0.55
2023-06-20T06:56:57.536Z,0.56
2023-06-20T06:57:57.515Z,0.56
2023-06-20T06:58:57.488Z,0.56
2023-06-20T06:59:57.467Z,0.57
2023-06-20T07:00:57.450Z,0.58
2023-06-20T07:01:57.502Z,0.60
2023-06-20T07:02:57.466Z,0.63
2023-06-20T07:03:57.729Z,0.74
2023-06-20T07:04:57.369Z,0.80
2023-06-20T07:05:57.352Z,0.86
2023-06-20T07:06:57.360Z,0.94
2023-06-20T07:07:57.305Z,0.97
2023-06-20T07:08:57.288Z,1.02
2023-06-20T07:09:57.244Z,1.10
2023-06-20T07:10:57.290Z,1.18
2023-06-20T07:11:57.280Z,1.22
2023-06-20T07:12:57.312Z,1.29
2023-06-20T07:13:57.329Z,1.40
2023-06-20T07:14:57.353Z,1.45
2023-06-20T07:15:57.444Z,1.55
2023-06-20T07:17:05.184Z,1.57
2023-06-20T07:17:58.401Z,1.58
2023-06-20T07:18:57.319Z,1.64
2023-06-20T07:19:57.298Z,1.59
2023-06-20T07:20:57.249Z,1.66
2023-06-20T07:21:57.225Z,1.80
2023-06-20T07:22:57.190Z,2.08
2023-06-20T07:23:57.314Z,2.54
2023-06-20T07:24:57.793Z,2.75
2023-06-20T07:25:57.135Z,2.87
2023-06-20T07:26:57.130Z,3.04
2023-06-20T07:27:57.101Z,3.06
2023-06-20T07:28:57.063Z,3.07
2023-06-20T07:29:57.156Z,3.19
2023-06-20T07:30:57.051Z,3.20
2023-06-20T07:31:57.026Z,3.26
2023-06-20T07:32:56.997Z,3.38
2023-06-20T07:33:56.857Z,3.67
2023-06-20T07:34:56.864Z,4.07
2023-06-20T07:35:56.809Z,4.08
2023-06-20T07:36:56.797Z,4.04
2023-06-20T07:37:56.763Z,4.30
2023-06-20T07:38:56.738Z,4.53
2023-06-20T07:39:56.713Z,5.41
2023-06-20T07:40:56.668Z,5.61
2023-06-20T07:41:56.650Z,5.52
2023-06-20T07:42:56.655Z,5.03
2023-06-20T07:43:56.613Z,4.48
2023-06-20T07:44:56.576Z,4.34
2023-06-20T07:45:56.594Z,4.65
2023-06-20T07:46:56.507Z,4.40
2023-06-20T07:47:56.486Z,4.27
2023-06-20T07:48:56.435Z,4.02
2023-06-20T07:49:56.556Z,4.01
2023-06-20T07:50:56.417Z,3.88
2023-06-20T07:51:56.413Z,3.79
2023-06-20T07:52:56.305Z,3.51
2023-06-20T07:53:57.205Z,3.51
2023-06-20T07:54:56.247Z,3.37
2023-06-20T07:55:56.338Z,2.98
2023-06-20T07:56:56.175Z,2.75
2023-06-20T07:57:56.217Z,2.53
2023-06-20T07:58:56.110Z,2.36
2023-06-20T07:59:56.027Z,2.30
2023-06-20T08:00:56.080Z,2.16
2023-06-20T08:01:55.996Z,1.91
2023-06-20T08:02:56.111Z,1.72
2023-06-20T08:03:56.020Z,0.90
2023-06-20T08:04:55.898Z,0.62
2023-06-20T08:05:56.089Z,0.35
2023-06-20T08:06:55.830Z,0.35
2023-06-20T08:07:55.797Z,0.49
2023-06-20T08:08:55.771Z,0.61
2023-06-20T08:09:55.735Z,0.72
2023-06-20T08:10:55.704Z,0.80
2023-06-20T08:11:55.675Z,0.89
2023-06-20T08:12:55.644Z,0.97
2023-06-20T08:13:55.609Z,0.97
2023-06-20T08:14:55.658Z,1.00
2023-06-20T08:15:55.529Z,1.02
2023-06-20T08:16:55.572Z,1.05
2023-06-20T08:17:55.525Z,1.08
2023-06-20T08:18:55.424Z,1.04
2023-06-20T08:19:55.579Z,1.03
2023-06-20T08:20:55.342Z,1.00
2023-06-20T08:21:55.310Z,0.96
2023-06-20T08:22:55.606Z,0.98
2023-06-20T08:23:55.305Z,0.98
2023-06-20T08:24:55.228Z,0.92
2023-06-20T08:25:55.182Z,0.85
2023-06-20T08:26:55.134Z,0.85
2023-06-20T08:28:06.371Z,0.87
2023-06-20T08:28:56.111Z,0.87
2023-06-20T08:29:55.024Z,0.85
2023-06-20T08:30:55.036Z,0.85
2023-06-20T08:31:54.946Z,0.86
2023-06-20T08:32:54.902Z,0.93
2023-06-20T08:33:54.849Z,0.93
2023-06-20T08:34:57.031Z,0.91
2023-06-20T08:35:54.983Z,0.93
2023-06-20T08:36:55.000Z,0.69
2023-06-20T08:37:55.046Z,0.66
2023-06-20T08:38:55.018Z,0.62
2023-06-20T08:39:54.986Z,0.64
2023-06-20T08:40:55.063Z,0.46
2023-06-20T08:41:54.922Z,0.55
2023-06-20T08:42:54.899Z,0.58
2023-06-20T08:43:54.871Z,0.61
2023-06-20T08:44:57.773Z,0.41
2023-06-20T08:45:54.930Z,0.43
2023-06-20T08:46:54.796Z,0.43
2023-06-20T08:47:54.732Z,0.50
2023-06-20T08:48:54.666Z,0.63
2023-06-20T08:49:54.637Z,0.76
2023-06-20T08:50:54.607Z,0.93
2023-06-20T08:51:54.567Z,1.06
2023-06-20T08:52:54.560Z,1.04
2023-06-20T08:53:54.859Z,0.99
2023-06-20T08:54:54.539Z,0.92
2023-06-20T08:55:54.454Z,0.90
2023-06-20T08:56:54.375Z,0.88
2023-06-20T08:57:54.356Z,0.84
2023-06-20T08:58:54.330Z,0.82
2023-06-20T08:59:54.410Z,0.81
2023-06-20T09:00:54.259Z,0.73
2023-06-20T09:01:54.209Z,0.69
2023-06-20T09:02:54.312Z,0.63
2023-06-20T09:03:54.120Z,0.60
2023-06-20T09:04:54.112Z,0.59
2023-06-20T09:05:54.038Z,0.54
2023-06-20T09:06:54.010Z,0.53
2023-06-20T09:07:53.974Z,0.50
2023-06-20T09:08:53.923Z,0.50
2023-06-20T09:09:53.886Z,0.49
2023-06-20T09:10:53.841Z,0.46
2023-06-20T09:11:53.808Z,0.43
2023-06-20T09:12:53.790Z,0.40
2023-06-20T09:13:53.746Z,0.48
2023-06-20T09:14:53.757Z,0.50
2023-06-20T09:15:53.679Z,0.50
2023-06-20T09:16:53.660Z,0.50
2023-06-20T09:17:53.622Z,0.50
2023-06-20T09:18:53.555Z,0.50
2023-06-20T09:19:54.899Z,0.50
2023-06-20T09:20:53.487Z,0.48
2023-06-20T09:22:04.307Z,0.49
2023-06-20T09:22:54.414Z,0.49
2023-06-20T09:23:53.369Z,0.43
2023-06-20T09:24:53.354Z,0.41
2023-06-20T09:25:53.336Z,0.41
2023-06-20T09:26:53.273Z,0.38
2023-06-20T09:27:53.231Z,0.44
2023-06-20T09:28:53.199Z,0.50
2023-06-20T09:29:53.241Z,0.51
2023-06-20T09:30:53.151Z,0.51
2023-06-20T09:31:53.067Z,0.50
2023-06-20T09:32:53.102Z,0.51
2023-06-20T09:33:52.996Z,0.50
2023-06-20T09:34:52.970Z,0.51
2023-06-20T09:35:52.938Z,0.51
2023-06-20T09:36:52.965Z,0.54
2023-06-20T09:37:52.858Z,0.55
2023-06-20T09:38:52.805Z,0.55
2023-06-20T09:39:52.810Z,0.51
2023-06-20T09:40:52.736Z,0.50
2023-06-20T09:41:52.728Z,0.51
2023-06-20T09:42:52.764Z,0.54
2023-06-20T09:43:52.627Z,0.54
2023-06-20T09:44:52.601Z,0.55
2023-06-20T09:45:52.596Z,0.61
2023-06-20T09:46:52.587Z,0.81
2023-06-20T09:47:52.605Z,1.27
2023-06-20T09:48:52.480Z,2.13
2023-06-20T09:49:52.435Z,2.35
2023-06-20T09:50:52.401Z,2.50
2023-06-20T09:51:52.369Z,2.58
2023-06-20T09:52:52.385Z,2.54
2023-06-20T09:53:52.309Z,2.38
2023-06-20T09:54:52.273Z,2.43
2023-06-20T09:55:52.242Z,1.90
2023-06-20T09:56:52.207Z,1.67
2023-06-20T09:57:52.179Z,1.48
2023-06-20T09:58:52.146Z,1.50
2023-06-20T09:59:52.096Z,1.66
2023-06-20T10:00:52.077Z,1.78
2023-06-20T10:01:52.462Z,1.64
2023-06-20T10:02:52.263Z,1.61
2023-06-20T10:03:52.038Z,1.59
2023-06-20T10:04:52.082Z,1.63
2023-06-20T10:05:51.894Z,1.71
2023-06-20T10:06:51.851Z,2.15
2023-06-20T10:07:51.817Z,2.40
2023-06-20T10:08:51.796Z,2.44
2023-06-20T10:09:51.766Z,2.33
2023-06-20T10:10:51.758Z,2.36
2023-06-20T10:11:51.685Z,2.40
2023-06-20T10:12:51.689Z,2.60
2023-06-20T10:13:51.638Z,2.75
2023-06-20T10:14:51.633Z,2.90
2023-06-20T10:15:51.556Z,3.01
2023-06-20T10:16:51.524Z,3.12
2023-06-20T10:17:51.654Z,3.03
2023-06-20T10:18:51.495Z,3.57
2023-06-20T10:19:51.565Z,3.62
2023-06-20T10:20:51.389Z,3.68
2023-06-20T10:21:51.383Z,3.54
2023-06-20T10:22:51.326Z,3.43
2023-06-20T10:23:51.380Z,3.45
2023-06-20T10:24:51.377Z,3.48
2023-06-20T10:25:51.234Z,3.52
2023-06-20T10:26:51.244Z,3.56
2023-06-20T10:27:51.160Z,3.61
2023-06-20T10:28:51.347Z,3.47
2023-06-20T10:29:51.110Z,3.47
2023-06-20T10:30:51.108Z,3.32
2023-06-20T10:31:51.177Z,3.19
2023-06-20T10:32:51.139Z,3.11
2023-06-20T10:33:51.039Z,3.12
2023-06-20T10:34:51.046Z,3.14
2023-06-20T10:35:51.762Z,3.12
2023-06-20T10:36:51.014Z,3.09
2023-06-20T10:37:51.020Z,3.02
2023-06-20T10:38:50.944Z,2.96
2023-06-20T10:39:50.970Z,2.97
2023-06-20T10:40:50.925Z,2.96
2023-06-20T10:41:50.922Z,2.91
2023-06-20T10:42:50.880Z,2.82
2023-06-20T10:43:50.885Z,2.80
2023-06-20T10:44:50.856Z,2.77
2023-06-20T10:45:50.899Z,2.75
2023-06-20T10:46:50.820Z,2.64
2023-06-20T10:47:50.883Z,2.63
2023-06-20T10:48:50.792Z,2.64
2023-06-20T10:49:51.250Z,2.60
2023-06-20T10:50:50.781Z,2.56
2023-06-20T10:51:50.802Z,2.51
2023-06-20T10:52:50.728Z,2.53
2023-06-20T10:53:50.699Z,2.53
2023-06-20T10:54:50.679Z,2.54
2023-06-20T10:55:50.716Z,2.55
2023-06-20T10:56:50.594Z,2.51
2023-06-20T10:57:50.574Z,2.47
2023-06-20T10:58:50.531Z,2.47
2023-06-20T10:59:50.776Z,2.38
2023-06-20T11:00:50.472Z,2.35
2023-06-20T11:01:50.446Z,2.27
2023-06-20T11:02:50.574Z,2.27
2023-06-20T11:03:50.406Z,2.28
2023-06-20T11:04:50.339Z,2.31
2023-06-20T11:05:50.308Z,2.28
2023-06-20T11:06:50.295Z,2.24
2023-06-20T11:07:52.142Z,2.22
2023-06-20T11:08:50.245Z,2.22
2023-06-20T11:09:50.192Z,2.17
2023-06-20T11:10:50.153Z,2.22
2023-06-20T11:11:50.152Z,2.18
2023-06-20T11:12:50.102Z,2.14
2023-06-20T11:13:50.099Z,2.05
2023-06-20T11:14:50.022Z,1.95
2023-06-20T11:15:50.029Z,1.91
2023-06-20T11:16:50.014Z,1.92
2023-06-20T11:17:50.849Z,1.92
2023-06-20T11:18:50.113Z,1.93
2023-06-20T11:19:49.863Z,1.93
2023-06-20T11:20:49.801Z,1.86
2023-06-20T11:21:49.755Z,1.86
2023-06-20T11:22:49.728Z,1.87
2023-06-20T11:23:49.653Z,1.89
2023-06-20T11:24:49.925Z,1.91
2023-06-20T11:25:49.588Z,1.94
2023-06-20T11:26:49.656Z,1.91
2023-06-20T11:27:49.690Z,1.92
2023-06-20T11:28:52.567Z,1.89
2023-06-20T11:29:50.829Z,1.89
2023-06-20T11:30:49.455Z,1.90
2023-06-20T11:31:49.367Z,1.87
2023-06-20T11:32:49.430Z,1.82
2023-06-20T11:33:49.305Z,1.79
2023-06-20T11:34:49.268Z,1.82
2023-06-20T11:35:49.213Z,1.81
2023-06-20T11:36:49.162Z,1.83
2023-06-20T11:37:49.129Z,1.78
2023-06-20T11:38:49.110Z,1.76
2023-06-20T11:39:49.084Z,1.78
2023-06-20T11:40:49.036Z,1.75
2023-06-20T11:41:49.001Z,1.77
2023-06-20T11:42:48.972Z,1.79
2023-06-20T11:43:48.901Z,1.79
2023-06-20T11:44:48.864Z,1.77
2023-06-20T11:45:48.840Z,1.84
2023-06-20T11:46:48.945Z,1.85
2023-06-20T11:47:48.811Z,1.85
2023-06-20T11:48:48.710Z,1.86
2023-06-20T11:49:48.729Z,1.85
2023-06-20T11:50:48.638Z,1.86
2023-06-20T11:51:48.599Z,1.87
2023-06-20T11:52:48.559Z,1.88
2023-06-20T11:53:48.497Z,1.92
2023-06-20T11:54:48.473Z,1.88
2023-06-20T11:55:48.436Z,1.89
2023-06-20T11:56:48.371Z,1.89
2023-06-20T11:57:48.347Z,1.87
2023-06-20T11:58:48.299Z,1.86
2023-06-20T11:59:48.274Z,1.89
2023-06-20T12:00:48.229Z,1.91
2023-06-20T12:01:48.235Z,1.93
2023-06-20T12:02:48.157Z,1.89
2023-06-20T12:03:48.133Z,1.93
2023-06-20T12:04:48.078Z,1.86
2023-06-20T12:05:48.062Z,1.82
2023-06-20T12:06:48.009Z,1.80
2023-06-20T12:07:47.966Z,1.78
2023-06-20T12:08:47.920Z,1.75
2023-06-20T12:09:47.873Z,1.73
2023-06-20T12:10:47.882Z,1.72
2023-06-20T12:11:47.805Z,1.70
2023-06-20T12:12:47.824Z,1.65
2023-06-20T12:13:47.746Z,1.73
2023-06-20T12:14:47.726Z,1.73
2023-06-20T12:15:47.666Z,1.68
2023-06-20T12:16:47.661Z,1.64
2023-06-20T12:17:47.694Z,1.65
2023-06-20T12:18:47.560Z,1.62
2023-06-20T12:19:47.519Z,1.62
2023-06-20T12:20:59.054Z,1.62
2023-06-20T12:21:48.504Z,1.63
2023-06-20T12:22:47.424Z,1.63
2023-06-20T12:23:47.378Z,1.66
2023-06-20T12:24:47.437Z,1.69
2023-06-20T12:25:47.320Z,1.72
2023-06-20T12:26:47.280Z,1.72
2023-06-20T12:27:47.243Z,1.75
2023-06-20T12:28:47.187Z,1.77
2023-06-20T12:29:47.137Z,1.78
2023-06-20T12:30:47.096Z,1.73
2023-06-20T12:31:47.093Z,1.72
2023-06-20T12:32:47.091Z,1.70
2023-06-20T12:33:46.994Z,1.70
2023-06-20T12:34:46.957Z,1.71
2023-06-20T12:35:46.923Z,1.68
2023-06-20T12:36:46.866Z,1.75
2023-06-20T12:37:46.882Z,1.71
2023-06-20T12:38:46.796Z,1.75
2023-06-20T12:39:46.766Z,1.79
2023-06-20T12:40:46.733Z,1.76
2023-06-20T12:41:46.699Z,1.71
2023-06-20T12:42:46.642Z,1.68
2023-06-20T12:43:46.603Z,1.70
2023-06-20T12:44:46.566Z,1.74
2023-06-20T12:45:46.556Z,1.69
2023-06-20T12:46:46.505Z,1.72
2023-06-20T12:47:46.486Z,1.70
2023-06-20T12:48:46.411Z,1.66
2023-06-20T12:49:46.386Z,1.63
2023-06-20T12:50:46.340Z,1.60
2023-06-20T12:51:46.280Z,1.58
2023-06-20T12:52:46.248Z,1.58
2023-06-20T12:53:46.249Z,1.57
2023-06-20T12:54:46.304Z,1.56
2023-06-20T12:55:46.272Z,1.46
2023-06-20T12:56:46.239Z,1.46
2023-06-20T12:57:46.192Z,1.46
2023-06-20T12:58:46.132Z,1.48
2023-06-20T12:59:46.085Z,1.48
2023-06-20T13:00:46.065Z,1.48
2023-06-20T13:01:46.006Z,1.50
2023-06-20T13:02:46.019Z,1.51
2023-06-20T13:03:46.038Z,1.45
2023-06-20T13:04:45.884Z,1.45
2023-06-20T13:05:45.843Z,1.46
2023-06-20T13:06:45.796Z,1.46
2023-06-20T13:07:45.753Z,1.43
2023-06-20T13:08:45.718Z,1.44